sensor_id;sensor_type;location;lat;lon;timestamp;P1;durP1;ratioP1;P2;durP2;ratioP2
49784;SDS011;35679;38.732;-121.358;2023-08-30T00:00:50;8.02;;;5.70;;
49784;SDS011;35679;38.732;-121.358;2023-08-30T00:03:40;7.72;;;5.65;;
49784;SDS011;35679;38.732;-121.358;2023-08-30T00:06:29;7.47;;;5.97;;
49784;SDS011;35679;38.732;-121.358;2023-08-30T00:09:20;7.28;;;5.38;;
49784;SDS011;35679;38.732;-121.358;2023-08-30T00:12:09;6.93;;;5.70;;
49784;SDS011;35679;38.732;-121.358;2023-08-30T00:14:59;7.50;;;6.10;;
49784;SDS011;35679;38.732;-121.358;2023-08-30T00:17:49;8.38;;;6.05;;
49784;SDS011;35679;38.732;-121.358;2023-08-30T00:20:40;7.17;;;5.83;;
49784;SDS011;35679;38.732;-121.358;2023-08-30T00:23:30;8.43;;;5.47;;
49784;SDS011;35679;38.732;-121.358;2023-08-30T00:26:19;6.75;;;5.60;;
49784;SDS011;35679;38.732;-121.358;2023-08-30T00:29:14;8.75;;;6.63;;
49784;SDS011;35679;38.732;-121.358;2023-08-30T00:32:04;8.13;;;6.53;;
49784;SDS011;35679;38.732;-121.358;2023-08-30T00:34:54;7.07;;;5.95;;
49784;SDS011;35679;38.732;-121.358;2023-08-30T00:37:44;8.82;;;6.18;;
49784;SDS011;35679;38.732;-121.358;2023-08-30T00:40:39;8.80;;;6.63;;
49784;SDS011;35679;38.732;-121.358;2023-08-30T00:43:29;7.60;;;6.28;;
49784;SDS011;35679;38.732;-121.358;2023-08-30T00:46:20;7.43;;;6.25;;
49784;SDS011;35679;38.732;-121.358;2023-08-30T00:49:09;7.90;;;6.10;;
49784;SDS011;35679;38.732;-121.358;2023-08-30T00:52:03;7.28;;;6.28;;
49784;SDS011;35679;38.732;-121.358;2023-08-30T00:54:58;7.95;;;6.55;;
49784;SDS011;35679;38.732;-121.358;2023-08-30T00:57:48;8.57;;;6.40;;
49784;SDS011;35679;38.732;-121.358;2023-08-30T01:00:38;8.38;;;6.35;;
49784;SDS011;35679;38.732;-121.358;2023-08-30T01:03:29;7.35;;;5.75;;
49784;SDS011;35679;38.732;-121.358;2023-08-30T01:06:20;8.48;;;6.40;;
49784;SDS011;35679;38.732;-121.358;2023-08-30T01:09:10;7.38;;;6.03;;
49784;SDS011;35679;38.732;-121.358;2023-08-30T01:14:58;6.82;;;6.10;;
49784;SDS011;35679;38.732;-121.358;2023-08-30T01:17:59;7.90;;;6.30;;
49784;SDS011;35679;38.732;-121.358;2023-08-30T01:20:53;7.47;;;6.43;;
49784;SDS011;35679;38.732;-121.358;2023-08-30T01:24:02;7.18;;;6.07;;
49784;SDS011;35679;38.732;-121.358;2023-08-30T01:27:08;7.95;;;6.13;;
49784;SDS011;35679;38.732;-121.358;2023-08-30T01:29:59;8.48;;;6.45;;
49784;SDS011;35679;38.732;-121.358;2023-08-30T01:32:51;8.40;;;6.18;;
49784;SDS011;35679;38.732;-121.358;2023-08-30T01:35:41;9.07;;;7.28;;
49784;SDS011;35679;38.732;-121.358;2023-08-30T01:38:31;7.88;;;6.15;;
49784;SDS011;35679;38.732;-121.358;2023-08-30T01:41:22;7.68;;;6.32;;
49784;SDS011;35679;38.732;-121.358;2023-08-30T01:44:12;7.63;;;6.57;;
49784;SDS011;35679;38.732;-121.358;2023-08-30T01:47:07;9.05;;;7.10;;
49784;SDS011;35679;38.732;-121.358;2023-08-30T01:49:57;7.97;;;6.65;;
49784;SDS011;35679;38.732;-121.358;2023-08-30T01:52:48;10.15;;;6.95;;
49784;SDS011;35679;38.732;-121.358;2023-08-30T01:55:39;7.25;;;6.30;;
49784;SDS011;35679;38.732;-121.358;2023-08-30T01:58:29;8.93;;;7.22;;
49784;SDS011;35679;38.732;-121.358;2023-08-30T02:01:19;8.80;;;7.18;;
49784;SDS011;35679;38.732;-121.358;2023-08-30T02:04:08;8.55;;;6.60;;
49784;SDS011;35679;38.732;-121.358;2023-08-30T02:07:00;7.80;;;6.25;;
49784;SDS011;35679;38.732;-121.358;2023-08-30T02:10:06;8.13;;;6.53;;
49784;SDS011;35679;38.732;-121.358;2023-08-30T02:12:58;21.50;;;13.90;;
49784;SDS011;35679;38.732;-121.358;2023-08-30T02:15:50;12.90;;;9.65;;
49784;SDS011;35679;38.732;-121.358;2023-08-30T02:18:44;14.00;;;10.35;;
49784;SDS011;35679;38.732;-121.358;2023-08-30T02:21:36;19.23;;;14.25;;
49784;SDS011;35679;38.732;-121.358;2023-08-30T02:24:26;20.00;;;15.63;;
49784;SDS011;35679;38.732;-121.358;2023-08-30T02:27:16;22.55;;;17.20;;
49784;SDS011;35679;38.732;-121.358;2023-08-30T02:30:06;24.20;;;19.48;;
49784;SDS011;35679;38.732;-121.358;2023-08-30T02:32:56;24.98;;;20.70;;
49784;SDS011;35679;38.732;-121.358;2023-08-30T02:35:46;27.48;;;22.02;;
49784;SDS011;35679;38.732;-121.358;2023-08-30T02:38:36;27.35;;;21.65;;
49784;SDS011;35679;38.732;-121.358;2023-08-30T02:41:25;30.70;;;24.73;;
49784;SDS011;35679;38.732;-121.358;2023-08-30T02:44:15;28.98;;;22.85;;
49784;SDS011;35679;38.732;-121.358;2023-08-30T02:47:04;24.42;;;20.85;;
49784;SDS011;35679;38.732;-121.358;2023-08-30T02:49:54;33.17;;;25.95;;
49784;SDS011;35679;38.732;-121.358;2023-08-30T02:52:44;29.83;;;22.35;;
49784;SDS011;35679;38.732;-121.358;2023-08-30T02:55:34;28.15;;;22.80;;
49784;SDS011;35679;38.732;-121.358;2023-08-30T02:58:23;32.88;;;25.65;;
49784;SDS011;35679;38.732;-121.358;2023-08-30T03:01:18;32.80;;;24.13;;
49784;SDS011;35679;38.732;-121.358;2023-08-30T03:04:09;26.73;;;21.70;;
49784;SDS011;35679;38.732;-121.358;2023-08-30T03:06:58;22.10;;;19.92;;
49784;SDS011;35679;38.732;-121.358;2023-08-30T03:09:51;21.98;;;19.63;;
49784;SDS011;35679;38.732;-121.358;2023-08-30T03:12:41;24.85;;;20.15;;
49784;SDS011;35679;38.732;-121.358;2023-08-30T03:15:31;23.13;;;20.52;;
49784;SDS011;35679;38.732;-121.358;2023-08-30T03:18:22;27.50;;;21.85;;
49784;SDS011;35679;38.732;-121.358;2023-08-30T03:21:13;21.98;;;19.75;;
49784;SDS011;35679;38.732;-121.358;2023-08-30T03:24:04;22.08;;;19.83;;
49784;SDS011;35679;38.732;-121.358;2023-08-30T03:26:55;21.70;;;19.30;;
49784;SDS011;35679;38.732;-121.358;2023-08-30T03:29:44;21.55;;;19.35;;
49784;SDS011;35679;38.732;-121.358;2023-08-30T03:32:35;24.85;;;22.45;;
49784;SDS011;35679;38.732;-121.358;2023-08-30T03:35:25;26.50;;;23.98;;
49784;SDS011;35679;38.732;-121.358;2023-08-30T03:38:15;25.23;;;22.83;;
49784;SDS011;35679;38.732;-121.358;2023-08-30T03:41:04;25.75;;;23.13;;
49784;SDS011;35679;38.732;-121.358;2023-08-30T03:43:54;25.52;;;23.05;;
49784;SDS011;35679;38.732;-121.358;2023-08-30T03:46:44;25.10;;;22.73;;
49784;SDS011;35679;38.732;-121.358;2023-08-30T03:49:34;26.80;;;24.10;;
49784;SDS011;35679;38.732;-121.358;2023-08-30T03:52:24;31.08;;;28.38;;
49784;SDS011;35679;38.732;-121.358;2023-08-30T03:55:14;30.88;;;28.08;;
49784;SDS011;35679;38.732;-121.358;2023-08-30T03:58:04;26.98;;;24.48;;
49784;SDS011;35679;38.732;-121.358;2023-08-30T04:00:54;27.73;;;25.13;;
49784;SDS011;35679;38.732;-121.358;2023-08-30T04:03:45;28.52;;;25.83;;
49784;SDS011;35679;38.732;-121.358;2023-08-30T04:06:35;31.88;;;28.58;;
49784;SDS011;35679;38.732;-121.358;2023-08-30T04:09:24;38.22;;;34.80;;
49784;SDS011;35679;38.732;-121.358;2023-08-30T04:12:14;35.60;;;32.42;;
49784;SDS011;35679;38.732;-121.358;2023-08-30T04:15:04;33.70;;;30.63;;
49784;SDS011;35679;38.732;-121.358;2023-08-30T04:17:53;35.53;;;32.22;;
49784;SDS011;35679;38.732;-121.358;2023-08-30T04:20:47;30.08;;;27.20;;
49784;SDS011;35679;38.732;-121.358;2023-08-30T04:23:36;23.92;;;21.40;;
49784;SDS011;35679;38.732;-121.358;2023-08-30T04:26:26;26.27;;;23.67;;
49784;SDS011;35679;38.732;-121.358;2023-08-30T04:29:16;28.73;;;25.83;;
49784;SDS011;35679;38.732;-121.358;2023-08-30T04:32:06;28.77;;;25.88;;
49784;SDS011;35679;38.732;-121.358;2023-08-30T04:34:55;29.35;;;26.58;;
49784;SDS011;35679;38.732;-121.358;2023-08-30T04:37:45;26.90;;;22.70;;
49784;SDS011;35679;38.732;-121.358;2023-08-30T04:40:34;24.33;;;20.75;;
49784;SDS011;35679;38.732;-121.358;2023-08-30T04:43:25;26.42;;;21.38;;
49784;SDS011;35679;38.732;-121.358;2023-08-30T04:46:14;25.13;;;19.90;;
49784;SDS011;35679;38.732;-121.358;2023-08-30T04:49:04;26.92;;;21.95;;
49784;SDS011;35679;38.732;-121.358;2023-08-30T04:51:53;27.48;;;22.98;;
49784;SDS011;35679;38.732;-121.358;2023-08-30T04:54:43;27.17;;;23.92;;
49784;SDS011;35679;38.732;-121.358;2023-08-30T04:57:34;26.52;;;23.17;;
49784;SDS011;35679;38.732;-121.358;2023-08-30T05:00:24;28.02;;;23.48;;
49784;SDS011;35679;38.732;-121.358;2023-08-30T05:03:14;31.50;;;23.90;;
49784;SDS011;35679;38.732;-121.358;2023-08-30T05:06:04;27.17;;;23.15;;
49784;SDS011;35679;38.732;-121.358;2023-08-30T05:08:53;27.75;;;21.83;;
49784;SDS011;35679;38.732;-121.358;2023-08-30T05:11:43;28.55;;;21.80;;
49784;SDS011;35679;38.732;-121.358;2023-08-30T05:14:32;28.45;;;23.10;;
49784;SDS011;35679;38.732;-121.358;2023-08-30T05:17:22;27.95;;;23.45;;
49784;SDS011;35679;38.732;-121.358;2023-08-30T05:20:13;28.35;;;23.42;;
49784;SDS011;35679;38.732;-121.358;2023-08-30T05:23:02;27.58;;;23.52;;
49784;SDS011;35679;38.732;-121.358;2023-08-30T05:25:52;30.63;;;24.30;;
49784;SDS011;35679;38.732;-121.358;2023-08-30T05:28:42;31.08;;;25.52;;
49784;SDS011;35679;38.732;-121.358;2023-08-30T05:31:31;28.45;;;24.73;;
49784;SDS011;35679;38.732;-121.358;2023-08-30T05:34:41;28.70;;;24.52;;
49784;SDS011;35679;38.732;-121.358;2023-08-30T05:37:43;26.10;;;23.20;;
49784;SDS011;35679;38.732;-121.358;2023-08-30T05:40:47;31.58;;;23.35;;
49784;SDS011;35679;38.732;-121.358;2023-08-30T05:43:37;30.20;;;24.02;;
49784;SDS011;35679;38.732;-121.358;2023-08-30T05:46:27;30.05;;;25.65;;
49784;SDS011;35679;38.732;-121.358;2023-08-30T05:49:16;32.28;;;24.70;;
49784;SDS011;35679;38.732;-121.358;2023-08-30T05:52:06;30.73;;;24.63;;
49784;SDS011;35679;38.732;-121.358;2023-08-30T05:54:56;30.73;;;24.70;;
49784;SDS011;35679;38.732;-121.358;2023-08-30T05:57:46;33.42;;;25.70;;
49784;SDS011;35679;38.732;-121.358;2023-08-30T06:00:36;30.08;;;21.70;;
49784;SDS011;35679;38.732;-121.358;2023-08-30T06:03:26;28.63;;;22.05;;
49784;SDS011;35679;38.732;-121.358;2023-08-30T06:06:16;29.88;;;22.48;;
49784;SDS011;35679;38.732;-121.358;2023-08-30T06:09:05;30.20;;;23.50;;
49784;SDS011;35679;38.732;-121.358;2023-08-30T06:11:55;31.45;;;23.88;;
49784;SDS011;35679;38.732;-121.358;2023-08-30T06:14:44;28.38;;;20.85;;
49784;SDS011;35679;38.732;-121.358;2023-08-30T06:17:40;29.15;;;21.10;;
49784;SDS011;35679;38.732;-121.358;2023-08-30T06:20:29;29.45;;;21.17;;
49784;SDS011;35679;38.732;-121.358;2023-08-30T06:23:19;30.27;;;22.33;;
49784;SDS011;35679;38.732;-121.358;2023-08-30T06:26:08;30.13;;;21.73;;
49784;SDS011;35679;38.732;-121.358;2023-08-30T06:28:58;28.65;;;21.00;;
49784;SDS011;35679;38.732;-121.358;2023-08-30T06:31:51;30.38;;;21.90;;
49784;SDS011;35679;38.732;-121.358;2023-08-30T06:34:41;29.95;;;21.65;;
49784;SDS011;35679;38.732;-121.358;2023-08-30T06:37:30;33.08;;;22.70;;
49784;SDS011;35679;38.732;-121.358;2023-08-30T06:40:20;32.88;;;22.13;;
49784;SDS011;35679;38.732;-121.358;2023-08-30T06:43:09;31.58;;;22.17;;
49784;SDS011;35679;38.732;-121.358;2023-08-30T06:45:59;30.90;;;21.88;;
49784;SDS011;35679;38.732;-121.358;2023-08-30T06:48:49;29.33;;;22.27;;
49784;SDS011;35679;38.732;-121.358;2023-08-30T06:51:38;28.33;;;22.15;;
49784;SDS011;35679;38.732;-121.358;2023-08-30T06:54:28;32.55;;;23.15;;
49784;SDS011;35679;38.732;-121.358;2023-08-30T06:57:18;31.20;;;22.33;;
49784;SDS011;35679;38.732;-121.358;2023-08-30T07:00:08;32.03;;;23.00;;
49784;SDS011;35679;38.732;-121.358;2023-08-30T07:02:58;35.45;;;22.80;;
49784;SDS011;35679;38.732;-121.358;2023-08-30T07:05:48;31.10;;;22.63;;
49784;SDS011;35679;38.732;-121.358;2023-08-30T07:08:40;32.30;;;23.05;;
49784;SDS011;35679;38.732;-121.358;2023-08-30T07:11:29;31.42;;;22.67;;
49784;SDS011;35679;38.732;-121.358;2023-08-30T07:14:20;34.10;;;24.48;;
49784;SDS011;35679;38.732;-121.358;2023-08-30T07:17:10;34.97;;;24.08;;
49784;SDS011;35679;38.732;-121.358;2023-08-30T07:20:00;34.40;;;23.50;;
49784;SDS011;35679;38.732;-121.358;2023-08-30T07:22:49;35.88;;;24.23;;
49784;SDS011;35679;38.732;-121.358;2023-08-30T07:25:39;31.55;;;24.33;;
49784;SDS011;35679;38.732;-121.358;2023-08-30T07:28:28;33.45;;;24.08;;
49784;SDS011;35679;38.732;-121.358;2023-08-30T07:31:18;31.17;;;23.73;;
49784;SDS011;35679;38.732;-121.358;2023-08-30T07:34:08;34.33;;;24.80;;
49784;SDS011;35679;38.732;-121.358;2023-08-30T07:36:58;32.92;;;24.23;;
49784;SDS011;35679;38.732;-121.358;2023-08-30T07:39:48;34.42;;;23.95;;
49784;SDS011;35679;38.732;-121.358;2023-08-30T07:42:39;34.93;;;24.83;;
49784;SDS011;35679;38.732;-121.358;2023-08-30T07:45:29;35.38;;;24.05;;
49784;SDS011;35679;38.732;-121.358;2023-08-30T07:48:19;32.80;;;23.73;;
49784;SDS011;35679;38.732;-121.358;2023-08-30T07:51:08;36.10;;;24.80;;
49784;SDS011;35679;38.732;-121.358;2023-08-30T07:53:58;34.65;;;24.63;;
49784;SDS011;35679;38.732;-121.358;2023-08-30T07:56:48;35.63;;;25.02;;
49784;SDS011;35679;38.732;-121.358;2023-08-30T07:59:38;33.47;;;23.65;;
49784;SDS011;35679;38.732;-121.358;2023-08-30T08:02:28;36.65;;;24.75;;
49784;SDS011;35679;38.732;-121.358;2023-08-30T08:05:17;36.65;;;25.35;;
49784;SDS011;35679;38.732;-121.358;2023-08-30T08:08:07;36.17;;;24.75;;
49784;SDS011;35679;38.732;-121.358;2023-08-30T08:10:56;34.42;;;23.83;;
49784;SDS011;35679;38.732;-121.358;2023-08-30T08:13:48;32.75;;;24.02;;
49784;SDS011;35679;38.732;-121.358;2023-08-30T08:16:38;37.58;;;26.17;;
49784;SDS011;35679;38.732;-121.358;2023-08-30T08:19:27;34.00;;;25.08;;
49784;SDS011;35679;38.732;-121.358;2023-08-30T08:22:17;34.40;;;24.77;;
49784;SDS011;35679;38.732;-121.358;2023-08-30T08:25:07;34.85;;;25.25;;
49784;SDS011;35679;38.732;-121.358;2023-08-30T08:27:58;35.50;;;25.60;;
49784;SDS011;35679;38.732;-121.358;2023-08-30T08:30:48;34.08;;;25.65;;
49784;SDS011;35679;38.732;-121.358;2023-08-30T08:33:40;37.25;;;25.52;;
49784;SDS011;35679;38.732;-121.358;2023-08-30T08:36:29;33.97;;;24.95;;
49784;SDS011;35679;38.732;-121.358;2023-08-30T08:39:19;36.30;;;25.38;;
49784;SDS011;35679;38.732;-121.358;2023-08-30T08:42:09;35.60;;;25.98;;
49784;SDS011;35679;38.732;-121.358;2023-08-30T08:44:58;38.75;;;27.05;;
49784;SDS011;35679;38.732;-121.358;2023-08-30T08:47:50;37.33;;;26.38;;
49784;SDS011;35679;38.732;-121.358;2023-08-30T08:50:40;36.42;;;26.60;;
49784;SDS011;35679;38.732;-121.358;2023-08-30T08:53:32;35.50;;;25.25;;
49784;SDS011;35679;38.732;-121.358;2023-08-30T08:56:22;37.58;;;26.27;;
49784;SDS011;35679;38.732;-121.358;2023-08-30T08:59:13;36.65;;;25.58;;
49784;SDS011;35679;38.732;-121.358;2023-08-30T09:02:03;34.92;;;25.10;;
49784;SDS011;35679;38.732;-121.358;2023-08-30T09:04:53;35.17;;;24.83;;
49784;SDS011;35679;38.732;-121.358;2023-08-30T09:07:43;43.40;;;26.35;;
49784;SDS011;35679;38.732;-121.358;2023-08-30T09:10:34;36.55;;;26.20;;
49784;SDS011;35679;38.732;-121.358;2023-08-30T09:13:24;36.97;;;26.55;;
49784;SDS011;35679;38.732;-121.358;2023-08-30T09:16:14;39.30;;;26.63;;
49784;SDS011;35679;38.732;-121.358;2023-08-30T09:19:04;39.25;;;26.48;;
49784;SDS011;35679;38.732;-121.358;2023-08-30T09:21:58;38.08;;;26.33;;
49784;SDS011;35679;38.732;-121.358;2023-08-30T09:24:49;37.70;;;26.67;;
49784;SDS011;35679;38.732;-121.358;2023-08-30T09:27:38;39.17;;;26.65;;
49784;SDS011;35679;38.732;-121.358;2023-08-30T09:30:30;38.10;;;25.50;;
49784;SDS011;35679;38.732;-121.358;2023-08-30T09:33:29;39.90;;;26.55;;
49784;SDS011;35679;38.732;-121.358;2023-08-30T09:36:22;38.33;;;23.90;;
49784;SDS011;35679;38.732;-121.358;2023-08-30T09:39:12;37.50;;;26.50;;
49784;SDS011;35679;38.732;-121.358;2023-08-30T09:42:02;39.05;;;25.85;;
49784;SDS011;35679;38.732;-121.358;2023-08-30T09:44:52;39.40;;;26.95;;
49784;SDS011;35679;38.732;-121.358;2023-08-30T09:47:46;36.13;;;26.15;;
49784;SDS011;35679;38.732;-121.358;2023-08-30T09:50:36;39.88;;;27.02;;
49784;SDS011;35679;38.732;-121.358;2023-08-30T09:53:27;38.28;;;26.25;;
49784;SDS011;35679;38.732;-121.358;2023-08-30T09:56:21;35.40;;;26.15;;
49784;SDS011;35679;38.732;-121.358;2023-08-30T09:59:11;39.45;;;27.80;;
49784;SDS011;35679;38.732;-121.358;2023-08-30T10:02:03;37.97;;;24.50;;
49784;SDS011;35679;38.732;-121.358;2023-08-30T10:04:53;42.08;;;27.67;;
49784;SDS011;35679;38.732;-121.358;2023-08-30T10:07:44;38.28;;;26.80;;
49784;SDS011;35679;38.732;-121.358;2023-08-30T10:10:34;38.15;;;27.55;;
49784;SDS011;35679;38.732;-121.358;2023-08-30T10:13:25;37.65;;;24.67;;
49784;SDS011;35679;38.732;-121.358;2023-08-30T10:16:15;40.50;;;27.60;;
49784;SDS011;35679;38.732;-121.358;2023-08-30T10:19:24;40.00;;;27.35;;
49784;SDS011;35679;38.732;-121.358;2023-08-30T10:22:15;37.55;;;23.52;;
49784;SDS011;35679;38.732;-121.358;2023-08-30T10:25:06;38.70;;;28.27;;
49784;SDS011;35679;38.732;-121.358;2023-08-30T10:28:05;39.47;;;27.25;;
49784;SDS011;35679;38.732;-121.358;2023-08-30T10:30:56;38.10;;;24.65;;
49784;SDS011;35679;38.732;-121.358;2023-08-30T10:33:47;40.58;;;27.23;;
49784;SDS011;35679;38.732;-121.358;2023-08-30T10:36:38;36.72;;;23.75;;
49784;SDS011;35679;38.732;-121.358;2023-08-30T10:39:37;39.17;;;27.83;;
49784;SDS011;35679;38.732;-121.358;2023-08-30T10:42:28;41.80;;;26.13;;
49784;SDS011;35679;38.732;-121.358;2023-08-30T10:45:22;39.42;;;28.27;;
49784;SDS011;35679;38.732;-121.358;2023-08-30T10:48:13;40.67;;;26.10;;
49784;SDS011;35679;38.732;-121.358;2023-08-30T10:51:04;40.53;;;28.25;;
49784;SDS011;35679;38.732;-121.358;2023-08-30T10:54:11;41.97;;;25.38;;
49784;SDS011;35679;38.732;-121.358;2023-08-30T10:57:05;40.88;;;26.92;;
49784;SDS011;35679;38.732;-121.358;2023-08-30T11:00:08;44.08;;;26.63;;
49784;SDS011;35679;38.732;-121.358;2023-08-30T11:03:10;43.28;;;28.83;;
49784;SDS011;35679;38.732;-121.358;2023-08-30T11:06:01;40.42;;;26.10;;
49784;SDS011;35679;38.732;-121.358;2023-08-30T11:08:51;42.17;;;27.67;;
49784;SDS011;35679;38.732;-121.358;2023-08-30T11:11:41;46.95;;;28.48;;
49784;SDS011;35679;38.732;-121.358;2023-08-30T11:14:31;42.83;;;29.60;;
49784;SDS011;35679;38.732;-121.358;2023-08-30T11:17:21;53.05;;;33.78;;
49784;SDS011;35679;38.732;-121.358;2023-08-30T11:20:12;64.75;;;39.83;;
49784;SDS011;35679;38.732;-121.358;2023-08-30T11:23:03;63.72;;;36.85;;
49784;SDS011;35679;38.732;-121.358;2023-08-30T11:25:52;58.60;;;35.53;;
49784;SDS011;35679;38.732;-121.358;2023-08-30T11:28:42;64.68;;;40.65;;
49784;SDS011;35679;38.732;-121.358;2023-08-30T11:31:34;56.72;;;35.67;;
49784;SDS011;35679;38.732;-121.358;2023-08-30T11:34:25;57.70;;;35.50;;
49784;SDS011;35679;38.732;-121.358;2023-08-30T11:37:14;64.50;;;36.72;;
49784;SDS011;35679;38.732;-121.358;2023-08-30T11:40:04;53.83;;;30.38;;
49784;SDS011;35679;38.732;-121.358;2023-08-30T11:42:54;58.15;;;34.22;;
49784;SDS011;35679;38.732;-121.358;2023-08-30T11:45:44;56.47;;;33.95;;
49784;SDS011;35679;38.732;-121.358;2023-08-30T11:48:34;66.55;;;36.42;;
49784;SDS011;35679;38.732;-121.358;2023-08-30T11:51:24;64.47;;;35.95;;
49784;SDS011;35679;38.732;-121.358;2023-08-30T11:54:14;65.45;;;36.72;;
49784;SDS011;35679;38.732;-121.358;2023-08-30T11:57:04;72.60;;;38.03;;
49784;SDS011;35679;38.732;-121.358;2023-08-30T11:59:54;69.95;;;36.30;;
49784;SDS011;35679;38.732;-121.358;2023-08-30T12:02:43;70.93;;;37.50;;
49784;SDS011;35679;38.732;-121.358;2023-08-30T12:05:34;71.40;;;37.35;;
49784;SDS011;35679;38.732;-121.358;2023-08-30T12:08:28;65.88;;;34.88;;
49784;SDS011;35679;38.732;-121.358;2023-08-30T12:11:19;73.43;;;37.22;;
49784;SDS011;35679;38.732;-121.358;2023-08-30T12:14:08;68.38;;;37.45;;
49784;SDS011;35679;38.732;-121.358;2023-08-30T12:16:59;70.68;;;39.70;;
49784;SDS011;35679;38.732;-121.358;2023-08-30T12:19:58;75.53;;;40.30;;
49784;SDS011;35679;38.732;-121.358;2023-08-30T12:22:48;67.43;;;37.97;;
49784;SDS011;35679;38.732;-121.358;2023-08-30T12:25:39;70.50;;;36.90;;
49784;SDS011;35679;38.732;-121.358;2023-08-30T12:28:29;71.38;;;36.95;;
49784;SDS011;35679;38.732;-121.358;2023-08-30T12:31:20;71.70;;;38.20;;
49784;SDS011;35679;38.732;-121.358;2023-08-30T12:34:12;74.13;;;38.70;;
49784;SDS011;35679;38.732;-121.358;2023-08-30T12:37:01;80.70;;;39.95;;
49784;SDS011;35679;38.732;-121.358;2023-08-30T12:39:52;78.32;;;40.25;;
49784;SDS011;35679;38.732;-121.358;2023-08-30T12:42:41;81.10;;;40.65;;
49784;SDS011;35679;38.732;-121.358;2023-08-30T12:45:31;80.32;;;41.00;;
49784;SDS011;35679;38.732;-121.358;2023-08-30T12:48:20;82.22;;;40.90;;
49784;SDS011;35679;38.732;-121.358;2023-08-30T12:51:10;72.57;;;39.42;;
49784;SDS011;35679;38.732;-121.358;2023-08-30T12:53:59;75.75;;;39.63;;
49784;SDS011;35679;38.732;-121.358;2023-08-30T12:56:49;82.28;;;42.05;;
49784;SDS011;35679;38.732;-121.358;2023-08-30T12:59:38;76.53;;;40.72;;
49784;SDS011;35679;38.732;-121.358;2023-08-30T13:02:28;79.25;;;41.42;;
49784;SDS011;35679;38.732;-121.358;2023-08-30T13:05:17;79.30;;;41.67;;
49784;SDS011;35679;38.732;-121.358;2023-08-30T13:08:07;80.28;;;40.35;;
49784;SDS011;35679;38.732;-121.358;2023-08-30T13:10:59;83.13;;;41.15;;
49784;SDS011;35679;38.732;-121.358;2023-08-30T13:13:49;77.30;;;41.17;;
49784;SDS011;35679;38.732;-121.358;2023-08-30T13:16:38;79.55;;;41.13;;
49784;SDS011;35679;38.732;-121.358;2023-08-30T13:19:27;87.03;;;41.63;;
49784;SDS011;35679;38.732;-121.358;2023-08-30T13:22:17;82.82;;;41.03;;
49784;SDS011;35679;38.732;-121.358;2023-08-30T13:25:07;81.57;;;39.92;;
49784;SDS011;35679;38.732;-121.358;2023-08-30T13:27:57;85.82;;;40.92;;
49784;SDS011;35679;38.732;-121.358;2023-08-30T13:30:46;79.68;;;41.22;;
49784;SDS011;35679;38.732;-121.358;2023-08-30T13:33:38;91.93;;;42.13;;
49784;SDS011;35679;38.732;-121.358;2023-08-30T13:36:28;84.85;;;42.72;;
49784;SDS011;35679;38.732;-121.358;2023-08-30T13:39:19;80.95;;;42.33;;
49784;SDS011;35679;38.732;-121.358;2023-08-30T13:42:11;84.30;;;40.40;;
49784;SDS011;35679;38.732;-121.358;2023-08-30T13:45:01;88.45;;;42.00;;
49784;SDS011;35679;38.732;-121.358;2023-08-30T13:47:51;83.55;;;41.38;;
49784;SDS011;35679;38.732;-121.358;2023-08-30T13:50:43;85.43;;;41.00;;
49784;SDS011;35679;38.732;-121.358;2023-08-30T13:53:34;84.55;;;41.67;;
49784;SDS011;35679;38.732;-121.358;2023-08-30T13:56:23;86.32;;;42.40;;
49784;SDS011;35679;38.732;-121.358;2023-08-30T13:59:13;83.53;;;41.88;;
49784;SDS011;35679;38.732;-121.358;2023-08-30T14:02:03;85.90;;;40.50;;
49784;SDS011;35679;38.732;-121.358;2023-08-30T14:04:53;83.07;;;40.90;;
49784;SDS011;35679;38.732;-121.358;2023-08-30T14:07:43;85.80;;;41.58;;
49784;SDS011;35679;38.732;-121.358;2023-08-30T14:10:34;87.68;;;42.25;;
49784;SDS011;35679;38.732;-121.358;2023-08-30T14:13:24;84.47;;;42.00;;
49784;SDS011;35679;38.732;-121.358;2023-08-30T14:16:14;83.43;;;41.33;;
49784;SDS011;35679;38.732;-121.358;2023-08-30T14:19:03;77.13;;;39.92;;
49784;SDS011;35679;38.732;-121.358;2023-08-30T14:21:55;91.90;;;40.25;;
49784;SDS011;35679;38.732;-121.358;2023-08-30T14:24:46;76.30;;;38.80;;
49784;SDS011;35679;38.732;-121.358;2023-08-30T14:27:55;78.72;;;39.88;;
49784;SDS011;35679;38.732;-121.358;2023-08-30T14:30:45;81.03;;;39.65;;
49784;SDS011;35679;38.732;-121.358;2023-08-30T14:33:34;79.60;;;39.63;;
49784;SDS011;35679;38.732;-121.358;2023-08-30T14:36:25;83.00;;;41.00;;
49784;SDS011;35679;38.732;-121.358;2023-08-30T14:39:14;80.00;;;39.72;;
49784;SDS011;35679;38.732;-121.358;2023-08-30T14:42:04;83.95;;;42.17;;
49784;SDS011;35679;38.732;-121.358;2023-08-30T14:44:53;88.88;;;41.90;;
49784;SDS011;35679;38.732;-121.358;2023-08-30T14:47:43;87.43;;;41.97;;
49784;SDS011;35679;38.732;-121.358;2023-08-30T14:50:32;84.75;;;42.35;;
49784;SDS011;35679;38.732;-121.358;2023-08-30T14:53:22;82.63;;;40.80;;
49784;SDS011;35679;38.732;-121.358;2023-08-30T14:56:16;84.00;;;41.70;;
49784;SDS011;35679;38.732;-121.358;2023-08-30T14:59:06;84.72;;;41.53;;
49784;SDS011;35679;38.732;-121.358;2023-08-30T15:01:56;88.70;;;41.50;;
49784;SDS011;35679;38.732;-121.358;2023-08-30T15:04:46;82.60;;;40.45;;
49784;SDS011;35679;38.732;-121.358;2023-08-30T15:07:35;86.35;;;42.30;;
49784;SDS011;35679;38.732;-121.358;2023-08-30T15:10:25;81.88;;;40.10;;
49784;SDS011;35679;38.732;-121.358;2023-08-30T15:13:14;94.00;;;40.95;;
49784;SDS011;35679;38.732;-121.358;2023-08-30T15:16:04;80.75;;;41.13;;
49784;SDS011;35679;38.732;-121.358;2023-08-30T15:18:54;80.93;;;38.45;;
49784;SDS011;35679;38.732;-121.358;2023-08-30T15:21:45;90.75;;;40.45;;
49784;SDS011;35679;38.732;-121.358;2023-08-30T15:24:34;86.30;;;40.70;;
49784;SDS011;35679;38.732;-121.358;2023-08-30T15:27:26;87.53;;;39.25;;
49784;SDS011;35679;38.732;-121.358;2023-08-30T15:30:16;75.93;;;38.03;;
49784;SDS011;35679;38.732;-121.358;2023-08-30T15:33:07;73.78;;;38.25;;
49784;SDS011;35679;38.732;-121.358;2023-08-30T15:35:57;72.65;;;36.75;;
49784;SDS011;35679;38.732;-121.358;2023-08-30T15:38:47;71.35;;;35.65;;
49784;SDS011;35679;38.732;-121.358;2023-08-30T15:41:38;57.20;;;30.65;;
49784;SDS011;35679;38.732;-121.358;2023-08-30T15:44:27;62.72;;;31.13;;
49784;SDS011;35679;38.732;-121.358;2023-08-30T15:47:17;55.28;;;29.08;;
49784;SDS011;35679;38.732;-121.358;2023-08-30T15:50:06;64.53;;;29.83;;
49784;SDS011;35679;38.732;-121.358;2023-08-30T15:52:56;58.90;;;29.83;;
49784;SDS011;35679;38.732;-121.358;2023-08-30T15:55:45;58.47;;;29.88;;
49784;SDS011;35679;38.732;-121.358;2023-08-30T15:58:35;59.58;;;30.08;;
49784;SDS011;35679;38.732;-121.358;2023-08-30T16:01:24;54.38;;;29.02;;
49784;SDS011;35679;38.732;-121.358;2023-08-30T16:04:14;60.45;;;31.05;;